Time;durP1;ratioP1;P1;durP2;ratioP2;P2;SDS_P1;SDS_P2;PMS_P1;PMS_P2;Temp;Humidity;BMP_temperature;BMP_pressure;BME280_temperature;BME280_humidity;BME280_pressure;Samples;Min_cycle;Max_cycle;Signal;HPM_P1;HPM_P2
2023/03/19 00:00:16;;;;;;;22.42;17.67;;;9.90;99.90;;;;;;5031367;28;20041;-88
2023/03/19 00:02:48;;;;;;;26.38;17.92;;;9.80;99.90;;;;;;5052218;28;20036;-88
2023/03/19 00:05:14;;;;;;;24.88;17.73;;;9.80;99.90;;;;;;5065204;28;20075;-88
2023/03/19 00:07:40;;;;;;;24.25;18.08;;;;;;;;;;5049613;28;20056;-90
2023/03/19 00:10:06;;;;;;;23.00;17.02;;;9.90;99.90;;;;;;5034729;28;20090;-89
2023/03/19 00:12:32;;;;;;;23.65;17.58;;;9.90;99.90;;;;;;5032891;28;20036;-89
2023/03/19 00:14:57;;;;;;;25.65;17.65;;;10.00;99.90;;;;;;5066173;28;20033;-90
2023/03/19 00:17:23;;;;;;;23.15;18.08;;;9.90;99.90;;;;;;5066453;28;20048;-90
2023/03/19 00:19:49;;;;;;;25.58;17.90;;;10.00;99.90;;;;;;5050098;28;20068;-88
2023/03/19 00:22:15;;;;;;;23.58;17.08;;;10.00;99.90;;;;;;5047379;28;20141;-90
2023/03/19 00:24:41;;;;;;;23.80;17.45;;;9.90;99.90;;;;;;5049681;28;20036;-89
2023/03/19 00:27:07;;;;;;;22.55;17.08;;;10.00;99.90;;;;;;5015847;28;20141;-90
2023/03/19 00:29:32;;;;;;;24.88;17.50;;;9.90;99.90;;;;;;5047984;28;20043;-89
2023/03/19 00:31:58;;;;;;;25.25;18.55;;;9.90;99.90;;;;;;5045877;28;20044;-89
2023/03/19 00:34:24;;;;;;;22.40;17.27;;;9.90;99.90;;;;;;5049925;28;20493;-89
2023/03/19 00:36:50;;;;;;;22.00;16.92;;;9.80;99.90;;;;;;5047617;28;20045;-88
2023/03/19 00:39:16;;;;;;;23.55;18.15;;;;;;;;;;5034598;28;20037;-90
2023/03/19 00:41:49;;;;;;;24.90;18.15;;;9.80;99.90;;;;;;5065252;28;20123;-89
2023/03/19 00:44:17;;;;;;;24.65;18.45;;;9.80;99.90;;;;;;5049161;28;20044;-90
2023/03/19 00:46:45;;;;;;;23.88;17.70;;;;;;;;;;5066925;28;20406;-89
2023/03/19 00:49:12;;;;;;;23.15;17.02;;;9.80;99.90;;;;;;5067178;28;20035;-90
2023/03/19 00:51:42;;;;;;;22.75;17.55;;;9.80;99.90;;;;;;5051647;28;20039;-90
2023/03/19 00:54:08;;;;;;;23.50;16.95;;;;;;;;;;5048458;28;20194;-90
2023/03/19 00:56:34;;;;;;;22.17;16.50;;;9.90;99.90;;;;;;5046458;28;20051;-90
2023/03/19 00:59:00;;;;;;;24.02;17.50;;;9.90;99.90;;;;;;5065501;28;20119;-89
2023/03/19 01:01:28;;;;;;;23.27;16.80;;;9.90;99.90;;;;;;5013262;28;20037;-92
2023/03/19 01:03:54;;;;;;;22.35;16.98;;;9.00;99.90;;;;;;5033231;28;20076;-90
2023/03/19 01:06:20;;;;;;;22.98;17.13;;;;;;;;;;5063474;28;20151;-89
2023/03/19 01:08:46;;;;;;;22.02;17.23;;;9.90;99.90;;;;;;5047425;28;20520;-89
2023/03/19 01:11:13;;;;;;;23.60;16.90;;;9.90;99.90;;;;;;5064005;28;20041;-90
2023/03/19 01:13:41;;;;;;;22.60;17.25;;;9.90;99.90;;;;;;5049473;28;20033;-89
2023/03/19 01:16:07;;;;;;;24.15;17.45;;;9.90;99.90;;;;;;5066090;28;20851;-89
2023/03/19 01:18:32;;;;;;;23.17;16.20;;;9.90;99.90;;;;;;5060312;28;20033;-90
2023/03/19 01:20:58;;;;;;;23.40;17.30;;;10.00;99.90;;;;;;5012850;28;20067;-89
2023/03/19 01:23:24;;;;;;;22.88;16.13;;;10.00;99.90;;;;;;5044738;28;20098;-90
2023/03/19 01:25:50;;;;;;;22.45;16.45;;;10.00;99.90;;;;;;5044920;28;20044;-89
2023/03/19 01:28:16;;;;;;;22.10;16.52;;;7.90;99.90;;;;;;5031866;28;20044;-89
2023/03/19 01:30:42;;;;;;;22.10;16.60;;;10.00;99.90;;;;;;5049718;28;20029;-90
2023/03/19 01:33:08;;;;;;;20.92;15.80;;;10.00;99.90;;;;;;5033355;28;20515;-89
2023/03/19 01:35:33;;;;;;;23.05;15.90;;;10.00;99.90;;;;;;5033878;28;20036;-89
2023/03/19 01:37:59;;;;;;;21.52;16.02;;;10.00;99.90;;;;;;5033422;28;20062;-90
2023/03/19 01:40:25;;;;;;;22.52;15.43;;;9.90;99.90;;;;;;5030994;28;20044;-90
2023/03/19 01:43:14;;;;;;;20.75;14.82;;;10.00;99.90;;;;;;5033932;28;20508;-90
2023/03/19 01:45:42;;;;;;;19.98;14.43;;;10.00;99.90;;;;;;5074077;28;20135;-89
2023/03/19 01:48:19;;;;;;;20.63;13.77;;;9.90;99.90;;;;;;5050288;28;20045;-88
2023/03/19 01:50:49;;;;;;;20.42;13.18;;;7.90;99.90;;;;;;5064435;28;20037;-89
2023/03/19 01:53:18;;;;;;;20.27;14.15;;;10.00;99.90;;;;;;5048053;28;20049;-89
2023/03/19 01:55:46;;;;;;;18.33;12.75;;;10.00;99.90;;;;;;5066539;28;20060;-89
2023/03/19 01:58:11;;;;;;;18.40;12.75;;;10.20;99.90;;;;;;5033692;28;20037;-89
2023/03/19 02:00:38;;;;;;;18.88;13.00;;;10.00;99.90;;;;;;5049275;28;20051;-89
2023/03/19 02:03:05;;;;;;;20.65;12.95;;;10.00;99.90;;;;;;5049098;28;20574;-90
2023/03/19 02:05:32;;;;;;;18.80;12.75;;;10.00;99.90;;;;;;5065765;28;20032;-89
2023/03/19 02:08:06;;;;;;;18.85;12.85;;;10.00;99.90;;;;;;5031015;28;20115;-90
2023/03/19 02:10:32;;;;;;;19.75;13.98;;;10.00;99.90;;;;;;5044511;28;20603;-89
2023/03/19 02:12:58;;;;;;;17.10;12.00;;;10.00;99.90;;;;;;5030994;28;20041;-89
2023/03/19 02:15:23;;;;;;;16.48;11.93;;;10.00;99.90;;;;;;5011957;28;20047;-88
2023/03/19 02:17:49;;;;;;;18.25;11.90;;;10.00;99.90;;;;;;5045796;28;20409;-89
2023/03/19 02:20:33;;;;;;;19.20;12.50;;;10.20;99.90;;;;;;5043942;28;20165;-90
2023/03/19 02:23:17;;;;;;;18.38;12.07;;;10.00;99.90;;;;;;5061854;28;20140;-89
2023/03/19 02:25:45;;;;;;;17.13;11.50;;;10.00;99.90;;;;;;5058196;28;20392;-87
2023/03/19 02:28:15;;;;;;;17.77;12.07;;;10.00;99.90;;;;;;5045553;28;20175;-89
2023/03/19 02:30:43;;;;;;;17.77;11.88;;;10.00;99.90;;;;;;5043660;28;20032;-88
2023/03/19 02:33:13;;;;;;;18.15;11.88;;;10.10;99.90;;;;;;5046965;28;20071;-88
2023/03/19 02:35:40;;;;;;;17.10;11.55;;;10.00;99.90;;;;;;5044218;28;20064;-87
2023/03/19 02:38:06;;;;;;;18.23;12.27;;;10.00;99.90;;;;;;5062676;28;20136;-88
2023/03/19 02:40:37;;;;;;;18.90;13.25;;;10.00;99.90;;;;;;5027872;28;20120;-89
2023/03/19 02:43:03;;;;;;;17.20;11.45;;;10.00;99.90;;;;;;5063181;28;20037;-88
2023/03/19 02:45:30;;;;;;;20.13;12.85;;;10.00;99.90;;;;;;5044060;28;20114;-89
2023/03/19 02:47:56;;;;;;;16.67;11.95;;;10.00;99.90;;;;;;5042629;28;20183;-89
2023/03/19 02:50:22;;;;;;;19.52;11.93;;;10.00;99.90;;;;;;5043388;28;20094;-88
2023/03/19 02:52:48;;;;;;;18.17;11.95;;;10.00;99.90;;;;;;5027147;28;20043;-89
2023/03/19 02:55:17;;;;;;;17.40;11.75;;;10.00;99.90;;;;;;5042946;28;20581;-88
2023/03/19 02:57:43;;;;;;;18.13;11.43;;;10.00;99.90;;;;;;5036024;28;20039;-88
2023/03/19 03:00:11;;;;;;;16.75;10.80;;;10.00;99.90;;;;;;5061951;28;20045;-88
2023/03/19 03:02:37;;;;;;;19.67;11.82;;;9.90;99.90;;;;;;5026716;28;20298;-89
2023/03/19 03:05:05;;;;;;;15.32;10.80;;;10.00;99.90;;;;;;5050092;28;20044;-89
2023/03/19 03:07:31;;;;;;;15.85;9.95;;;;;;;;;;5047777;28;20055;-88
2023/03/19 03:09:57;;;;;;;14.43;9.45;;;9.90;99.90;;;;;;5045950;28;20145;-88
2023/03/19 03:12:23;;;;;;;15.77;10.00;;;10.00;99.90;;;;;;5063716;28;20033;-89
2023/03/19 03:14:49;;;;;;;15.32;10.13;;;10.00;99.90;;;;;;5032464;28;20039;-88
2023/03/19 03:17:15;;;;;;;14.90;9.75;;;10.00;99.90;;;;;;5045406;28;20040;-89
2023/03/19 03:19:40;;;;;;;15.18;9.65;;;10.00;99.90;;;;;;5048458;28;20611;-87
2023/03/19 03:22:07;;;;;;;13.95;8.90;;;9.90;99.90;;;;;;5031139;28;20036;-89
2023/03/19 03:24:33;;;;;;;14.43;9.82;;;10.00;99.90;;;;;;5066777;28;20048;-89
2023/03/19 03:26:58;;;;;;;15.32;9.00;;;10.00;99.90;;;;;;5030452;28;20741;-89
2023/03/19 03:29:24;;;;;;;14.60;9.63;;;10.00;99.90;;;;;;5048746;28;20040;-89
2023/03/19 03:31:50;;;;;;;14.13;9.05;;;9.90;99.90;;;;;;5064549;28;20044;-88
2023/03/19 03:34:16;;;;;;;14.93;9.10;;;9.90;99.90;;;;;;5048569;28;20028;-88
2023/03/19 03:36:42;;;;;;;15.65;9.30;;;9.90;99.90;;;;;;5066496;28;20154;-91
2023/03/19 03:39:08;;;;;;;14.93;9.07;;;9.90;99.90;;;;;;5048233;28;20119;-88
2023/03/19 03:41:34;;;;;;;14.52;9.52;;;9.90;99.90;;;;;;5048225;28;20052;-89
2023/03/19 03:44:00;;;;;;;15.20;9.55;;;9.90;99.90;;;;;;5032200;28;20052;-89
2023/03/19 03:46:25;;;;;;;14.68;9.13;;;9.90;99.90;;;;;;5065289;28;20654;-90
2023/03/19 03:48:51;;;;;;;14.23;9.23;;;9.90;99.90;;;;;;5065238;28;20041;-89
2023/03/19 03:51:18;;;;;;;14.65;8.90;;;9.90;99.90;;;;;;5048052;28;20032;-88
2023/03/19 03:53:44;;;;;;;15.82;9.30;;;9.80;99.90;;;;;;5065407;28;20493;-87
2023/03/19 03:56:10;;;;;;;13.63;8.20;;;9.90;99.90;;;;;;5015112;28;20082;-89
2023/03/19 03:58:36;;;;;;;13.90;8.80;;;9.90;99.90;;;;;;5032532;28;20091;-89
2023/03/19 04:01:02;;;;;;;13.48;8.20;;;9.90;99.90;;;;;;5045662;28;20060;-89
2023/03/19 04:03:28;;;;;;;13.30;8.15;;;9.80;99.90;;;;;;5047901;28;20068;-88
2023/03/19 04:05:54;;;;;;;12.38;7.47;;;9.90;99.90;;;;;;5016268;28;20109;-89
2023/03/19 04:08:20;;;;;;;11.68;7.20;;;9.90;99.90;;;;;;5036123;28;20048;-90
2023/03/19 04:10:46;;;;;;;13.13;7.35;;;9.90;99.90;;;;;;5030317;28;20055;-90
2023/03/19 04:13:12;;;;;;;12.48;7.10;;;9.90;99.90;;;;;;5047996;28;20400;-88
2023/03/19 04:15:40;;;;;;;11.77;6.72;;;9.90;99.90;;;;;;5050512;28;20090;-89
2023/03/19 04:18:06;;;;;;;12.00;6.88;;;;;;;;;;5049008;28;20070;-90
2023/03/19 04:20:32;;;;;;;12.48;6.80;;;9.90;99.90;;;;;;5063882;28;20044;-88
2023/03/19 04:22:58;;;;;;;12.00;7.18;;;9.80;99.90;;;;;;5047534;28;20052;-89
2023/03/19 04:25:24;;;;;;;11.60;6.65;;;9.80;99.90;;;;;;5064445;28;20116;-89
2023/03/19 04:27:50;;;;;;;13.07;6.68;;;9.80;99.90;;;;;;5047499;28;21205;-89
2023/03/19 04:30:15;;;;;;;11.90;7.25;;;9.80;99.90;;;;;;5029448;28;20037;-89
2023/03/19 04:32:43;;;;;;;12.27;7.10;;;9.80;99.90;;;;;;5030842;28;20032;-88
2023/03/19 04:35:08;;;;;;;11.20;6.55;;;9.80;99.90;;;;;;5013344;28;20052;-89
2023/03/19 04:37:34;;;;;;;12.52;7.20;;;9.80;99.90;;;;;;5048190;28;20037;-90
2023/03/19 04:40:00;;;;;;;12.93;7.72;;;9.80;99.90;;;;;;5032506;28;20040;-89
2023/03/19 04:42:26;;;;;;;12.50;8.00;;;9.80;99.90;;;;;;5063557;28;20043;-89
2023/03/19 04:44:52;;;;;;;13.50;7.85;;;9.80;99.90;;;;;;5063378;28;20418;-90
2023/03/19 04:47:18;;;;;;;13.52;8.13;;;9.80;99.90;;;;;;5063521;28;20452;-88
2023/03/19 04:49:43;;;;;;;15.80;9.52;;;9.80;99.90;;;;;;5029975;28;20041;-89
2023/03/19 04:52:09;;;;;;;14.40;8.27;;;9.80;99.90;;;;;;5028731;28;20051;-88
2023/03/19 04:54:35;;;;;;;14.52;8.88;;;9.70;99.90;;;;;;5045313;28;20037;-88
2023/03/19 04:57:01;;;;;;;14.10;8.77;;;9.70;99.90;;;;;;5064341;28;20516;-90
2023/03/19 04:59:27;;;;;;;14.10;8.35;;;9.70;99.90;;;;;;5063526;28;20033;-89
2023/03/19 05:01:53;;;;;;;13.95;9.02;;;9.70;99.90;;;;;;5025441;28;20043;-89
2023/03/19 05:04:19;;;;;;;15.15;10.02;;;9.70;99.90;;;;;;5044225;28;20044;-89
2023/03/19 05:06:45;;;;;;;16.42;9.18;;;9.70;99.90;;;;;;5044052;28;20033;-89
2023/03/19 05:09:11;;;;;;;16.40;9.35;;;;;;;;;;5031756;28;20041;-90
2023/03/19 05:11:37;;;;;;;14.30;9.13;;;9.70;99.90;;;;;;5081788;28;20064;-90
2023/03/19 05:14:03;;;;;;;14.55;8.98;;;9.70;99.90;;;;;;5061486;28;20071;-89
2023/03/19 05:16:29;;;;;;;13.77;8.60;;;9.60;99.90;;;;;;5029061;28;20029;-88
2023/03/19 05:18:55;;;;;;;13.98;8.10;;;9.50;99.90;;;;;;5062479;28;20520;-89
2023/03/19 05:21:21;;;;;;;13.65;8.85;;;9.20;99.90;;;;;;5063219;28;20513;-90
2023/03/19 05:23:51;;;;;;;14.05;7.97;;;9.40;99.90;;;;;;5060615;28;20051;-89
2023/03/19 05:26:17;;;;;;;15.88;8.90;;;9.40;99.90;;;;;;5030935;28;20036;-88
2023/03/19 05:28:43;;;;;;;13.05;7.90;;;9.30;99.90;;;;;;5063100;28;20051;-88
2023/03/19 05:31:09;;;;;;;12.00;7.82;;;9.30;99.90;;;;;;5046358;28;20444;-89
2023/03/19 05:33:35;;;;;;;12.50;7.90;;;9.40;99.90;;;;;;5046799;28;20130;-88
2023/03/19 05:36:01;;;;;;;14.40;7.85;;;9.30;99.90;;;;;;5045268;28;20657;-89
2023/03/19 05:38:27;;;;;;;13.30;8.27;;;9.40;99.90;;;;;;5044496;28;20036;-90
2023/03/19 05:40:53;;;;;;;13.07;7.93;;;9.40;99.90;;;;;;5029601;28;20040;-90
2023/03/19 05:43:19;;;;;;;13.10;7.68;;;9.70;99.90;;;;;;5062212;28;20044;-88
2023/03/19 05:45:51;;;;;;;13.25;7.68;;;9.40;99.90;;;;;;5027198;28;20052;-89
2023/03/19 05:48:17;;;;;;;12.38;7.35;;;9.40;99.90;;;;;;5060349;28;21220;-90
2023/03/19 05:50:42;;;;;;;12.93;7.30;;;9.30;99.90;;;;;;5045593;28;20752;-90
2023/03/19 05:53:08;;;;;;;12.05;7.53;;;9.30;99.90;;;;;;5043359;28;20568;-89
2023/03/19 05:55:34;;;;;;;12.40;7.65;;;9.30;99.90;;;;;;5029160;28;20559;-90
2023/03/19 05:58:00;;;;;;;12.50;7.63;;;9.20;99.90;;;;;;5031247;28;20099;-90
2023/03/19 06:00:26;;;;;;;13.25;7.68;;;9.20;99.90;;;;;;5011701;28;20056;-90
2023/03/19 06:02:53;;;;;;;11.98;7.10;;;9.20;99.90;;;;;;5061287;28;20099;-89
2023/03/19 06:05:20;;;;;;;11.90;7.07;;;9.10;99.90;;;;;;5062739;28;20152;-88
2023/03/19 06:07:46;;;;;;;14.30;7.78;;;9.00;99.90;;;;;;5062642;28;20163;-90
2023/03/19 06:10:12;;;;;;;12.60;7.25;;;9.00;99.90;;;;;;5028626;28;20505;-89
2023/03/19 06:12:37;;;;;;;13.63;7.68;;;9.00;99.90;;;;;;5062328;28;20036;-89
2023/03/19 06:15:03;;;;;;;13.65;7.03;;;9.00;99.90;;;;;;5046727;28;20067;-89
2023/03/19 06:17:29;;;;;;;12.05;7.15;;;9.00;99.90;;;;;;5028064;28;20048;-89
2023/03/19 06:19:55;;;;;;;12.48;7.13;;;9.60;99.90;;;;;;5046279;28;20493;-89
2023/03/19 06:22:20;;;;;;;12.23;6.75;;;8.90;99.90;;;;;;5030285;28;20039;-88
2023/03/19 06:24:46;;;;;;;14.02;7.85;;;9.00;99.90;;;;;;5030477;28;20109;-88
2023/03/19 06:27:12;;;;;;;13.13;7.90;;;8.90;99.90;;;;;;5044823;28;20455;-88
2023/03/19 06:29:38;;;;;;;13.75;7.85;;;9.00;99.90;;;;;;5059427;28;20087;-89
2023/03/19 06:32:04;;;;;;;13.70;8.07;;;9.00;99.90;;;;;;5043529;28;20072;-88
2023/03/19 06:34:30;;;;;;;13.23;8.13;;;9.00;99.90;;;;;;5059427;28;20408;-90
2023/03/19 06:36:56;;;;;;;13.23;7.88;;;9.10;99.90;;;;;;5010354;28;21183;-88
2023/03/19 06:39:21;;;;;;;12.48;8.05;;;9.10;99.90;;;;;;5062836;28;20111;-89
2023/03/19 06:41:47;;;;;;;13.23;8.30;;;9.20;99.90;;;;;;5010744;28;20068;-90
2023/03/19 06:44:13;;;;;;;14.25;7.93;;;9.30;99.90;;;;;;5059191;28;20516;-88
2023/03/19 06:46:38;;;;;;;13.50;8.45;;;9.50;99.90;;;;;;5022825;28;20032;-88
2023/03/19 06:49:04;;;;;;;12.68;7.70;;;9.50;99.90;;;;;;5028779;28;20137;-89
2023/03/19 06:51:30;;;;;;;13.65;7.85;;;9.70;99.90;;;;;;5060978;28;20045;-89
2023/03/19 06:53:56;;;;;;;11.98;7.53;;;9.60;99.90;;;;;;5030570;28;20123;-88
2023/03/19 06:56:21;;;;;;;13.35;7.97;;;9.70;99.90;;;;;;5030517;28;20048;-89
2023/03/19 06:58:47;;;;;;;12.27;7.53;;;9.60;99.90;;;;;;5063825;28;20044;-89
2023/03/19 07:01:13;;;;;;;11.82;7.45;;;9.70;99.90;;;;;;5029182;28;20282;-89
2023/03/19 07:03:39;;;;;;;12.75;7.65;;;9.70;99.90;;;;;;5060786;28;20048;-88
2023/03/19 07:06:06;;;;;;;12.55;7.15;;;9.80;99.90;;;;;;5042795;28;20052;-89
2023/03/19 07:08:32;;;;;;;13.30;6.82;;;9.80;99.90;;;;;;5046536;28;20051;-88
2023/03/19 07:11:05;;;;;;;13.45;7.40;;;9.80;99.90;;;;;;5060703;28;20040;-88
2023/03/19 07:13:31;;;;;;;13.52;6.95;;;9.90;99.90;;;;;;5080121;28;20116;-88
2023/03/19 07:15:58;;;;;;;13.43;7.25;;;10.00;99.90;;;;;;5064434;28;20040;-90
2023/03/19 07:18:24;;;;;;;11.63;6.85;;;10.00;99.90;;;;;;5065222;28;20055;-88
2023/03/19 07:20:51;;;;;;;12.02;7.32;;;10.10;99.90;;;;;;5065222;28;20068;-90
2023/03/19 07:23:17;;;;;;;12.27;7.07;;;10.10;99.90;;;;;;5051459;28;20040;-91
2023/03/19 07:25:44;;;;;;;10.70;6.63;;;;;;;;;;5034574;28;20052;-88
2023/03/19 07:28:10;;;;;;;11.75;7.25;;;10.30;99.90;;;;;;5050682;28;20045;-90
2023/03/19 07:30:37;;;;;;;11.38;7.22;;;10.20;99.90;;;;;;5046328;28;20058;-90
2023/03/19 07:33:03;;;;;;;13.52;7.20;;;10.30;99.90;;;;;;5018300;28;20036;-89
2023/03/19 07:35:29;;;;;;;12.68;7.72;;;12.10;99.90;;;;;;5050974;28;20036;-89
2023/03/19 07:37:55;;;;;;;12.43;7.22;;;10.50;99.90;;;;;;5050771;28;20039;-88
2023/03/19 07:40:20;;;;;;;13.85;8.20;;;10.50;99.90;;;;;;5026720;28;20132;-89
2023/03/19 07:42:46;;;;;;;12.55;7.97;;;10.50;99.90;;;;;;5067109;28;20585;-89
2023/03/19 07:45:12;;;;;;;13.05;7.50;;;10.60;99.90;;;;;;5046851;28;20040;-89
2023/03/19 07:47:38;;;;;;;13.23;7.90;;;10.60;99.90;;;;;;5030873;28;20044;-90
2023/03/19 07:50:05;;;;;;;13.43;8.30;;;10.60;99.90;;;;;;5051961;28;20033;-90
2023/03/19 07:52:31;;;;;;;12.85;8.10;;;10.60;99.90;;;;;;5051574;28;20028;-90
2023/03/19 07:54:56;;;;;;;13.10;8.23;;;10.70;99.90;;;;;;5051944;28;20472;-91
2023/03/19 07:57:24;;;;;;;13.82;8.95;;;10.80;99.90;;;;;;5047715;28;20036;-91
2023/03/19 07:59:50;;;;;;;15.07;8.88;;;10.80;99.90;;;;;;5028940;28;20044;-90
2023/03/19 08:02:17;;;;;;;15.05;9.30;;;10.90;99.90;;;;;;5051816;28;20048;-89
2023/03/19 08:04:42;;;;;;;14.00;9.68;;;11.00;99.90;;;;;;5052190;28;20485;-88
2023/03/19 08:07:11;;;;;;;14.10;9.35;;;11.10;99.90;;;;;;5046358;28;20047;-88
2023/03/19 08:09:38;;;;;;;15.90;10.45;;;11.20;99.90;;;;;;5048730;28;20036;-91
2023/03/19 08:12:05;;;;;;;14.63;9.68;;;11.20;99.90;;;;;;5013586;28;20048;-87
2023/03/19 08:14:32;;;;;;;16.80;10.85;;;11.30;99.90;;;;;;5029780;28;20046;-89
2023/03/19 08:16:58;;;;;;;15.13;9.77;;;11.20;99.90;;;;;;5066697;28;20037;-91
2023/03/19 08:19:24;;;;;;;15.57;10.55;;;12.10;99.90;;;;;;5034738;28;20033;-90
2023/03/19 08:21:50;;;;;;;15.98;10.05;;;11.20;99.90;;;;;;5033213;28;20477;-89
2023/03/19 08:24:16;;;;;;;16.20;10.38;;;11.20;99.90;;;;;;5048703;28;20119;-89
2023/03/19 08:26:42;;;;;;;16.38;10.02;;;11.20;99.90;;;;;;5048328;28;20136;-90
2023/03/19 08:29:08;;;;;;;16.35;10.80;;;11.20;99.90;;;;;;5063321;28;20491;-88
2023/03/19 08:31:34;;;;;;;17.13;11.48;;;11.20;99.90;;;;;;5048797;28;20044;-91
2023/03/19 08:34:02;;;;;;;15.93;10.10;;;11.40;99.90;;;;;;5035127;28;20044;-90
2023/03/19 08:36:27;;;;;;;16.17;10.70;;;11.40;99.90;;;;;;5055114;28;20063;-90
2023/03/19 08:38:53;;;;;;;17.00;11.05;;;11.60;99.90;;;;;;5047726;28;20032;-89
2023/03/19 08:41:20;;;;;;;16.98;9.93;;;11.70;99.90;;;;;;5033943;28;20493;-90
2023/03/19 08:43:46;;;;;;;16.05;10.45;;;11.80;99.90;;;;;;5066319;28;20063;-89
2023/03/19 08:46:12;;;;;;;16.75;10.57;;;11.90;99.90;;;;;;5032954;28;20040;-89
2023/03/19 08:48:38;;;;;;;16.58;10.82;;;11.80;99.90;;;;;;5033754;28;20047;-90
2023/03/19 08:51:04;;;;;;;17.92;10.98;;;11.80;99.90;;;;;;5046367;28;20067;-90
2023/03/19 08:53:31;;;;;;;15.88;11.32;;;11.80;99.90;;;;;;5047494;28;20086;-90
2023/03/19 08:56:00;;;;;;;15.85;11.20;;;11.70;99.90;;;;;;5046332;28;20060;-88
2023/03/19 08:58:27;;;;;;;16.70;11.05;;;11.70;99.90;;;;;;5067856;28;20029;-90
2023/03/19 09:00:59;;;;;;;15.73;10.82;;;11.70;99.90;;;;;;5031416;28;20044;-90
2023/03/19 09:03:25;;;;;;;15.82;10.52;;;11.70;99.90;;;;;;5049528;28;20041;-90
2023/03/19 09:05:50;;;;;;;21.00;10.15;;;11.60;99.90;;;;;;5031246;28;20470;-90
2023/03/19 09:08:16;;;;;;;13.82;9.98;;;11.60;99.90;;;;;;5049190;28;20037;-90
2023/03/19 09:10:42;;;;;;;14.70;9.18;;;11.50;99.90;;;;;;5031383;28;20744;-89
2023/03/19 09:13:07;;;;;;;14.05;8.13;;;11.60;99.90;;;;;;5030079;28;20048;-89
2023/03/19 09:15:33;;;;;;;14.07;8.70;;;11.60;99.90;;;;;;5030597;28;20123;-87
2023/03/19 09:17:59;;;;;;;13.68;8.43;;;11.60;99.90;;;;;;5046302;28;20041;-86
2023/03/19 09:20:25;;;;;;;12.45;8.13;;;11.70;99.90;;;;;;5030455;28;20040;-91
2023/03/19 09:22:51;;;;;;;13.43;8.15;;;12.30;99.90;;;;;;5050716;28;20044;-91
2023/03/19 09:25:17;;;;;;;12.98;7.95;;;12.00;99.90;;;;;;5071680;28;20074;-91
2023/03/19 09:27:42;;;;;;;13.25;8.00;;;12.20;99.90;;;;;;5054343;28;20044;-90
2023/03/19 09:30:09;;;;;;;12.50;7.82;;;12.30;99.90;;;;;;5038278;28;20041;-90
2023/03/19 09:32:35;;;;;;;12.32;6.97;;;12.50;99.90;;;;;;5076233;28;20047;-89
2023/03/19 09:35:01;;;;;;;13.05;7.45;;;11.80;99.90;;;;;;5051442;28;20117;-88
2023/03/19 09:37:27;;;;;;;12.57;7.60;;;12.50;99.90;;;;;;5038177;28;20178;-89
2023/03/19 09:39:53;;;;;;;11.52;6.75;;;12.50;99.90;;;;;;5032937;28;20342;-89
2023/03/19 09:42:48;;;;;;;10.60;6.50;;;12.40;99.90;;;;;;5056008;28;20032;-89
2023/03/19 09:45:17;;;;;;;12.57;6.78;;;12.60;99.90;;;;;;5047171;28;20091;-90
2023/03/19 09:47:45;;;;;;;10.93;6.32;;;12.90;99.90;;;;;;5075444;28;20455;-89
2023/03/19 09:50:13;;;;;;;11.43;6.47;;;13.10;99.90;;;;;;5036421;28;20045;-88
2023/03/19 09:53:00;;;;;;;11.70;6.90;;;13.20;99.90;;;;;;5057608;28;20032;-89
2023/03/19 09:55:44;;;;;;;11.20;6.18;;;13.10;99.90;;;;;;5059757;28;20109;-91
2023/03/19 09:58:14;;;;;;;12.90;6.65;;;13.00;99.90;;;;;;5065381;28;20111;-90
2023/03/19 10:00:41;;;;;;;13.57;7.60;;;12.90;99.90;;;;;;5072701;28;20171;-89
2023/03/19 10:03:19;;;;;;;12.13;6.93;;;12.90;99.90;;;;;;5063886;28;20490;-90
2023/03/19 10:06:04;;;;;;;13.05;7.45;;;12.80;99.90;;;;;;5048001;28;20048;-90
2023/03/19 10:08:40;;;;;;;12.18;7.45;;;12.80;99.90;;;;;;5055452;28;20501;-89
2023/03/19 10:11:19;;;;;;;12.75;7.72;;;12.70;99.90;;;;;;5067367;28;20047;-89
2023/03/19 10:14:19;;;;;;;12.93;7.80;;;12.70;99.90;;;;;;5045720;28;20087;-87
2023/03/19 10:16:48;;;;;;;11.95;7.60;;;12.80;99.90;;;;;;5069198;28;20036;-89
2023/03/19 10:19:20;;;;;;;12.25;7.47;;;12.80;99.90;;;;;;5069797;28;20032;-90
2023/03/19 10:21:58;;;;;;;12.23;7.27;;;12.80;99.90;;;;;;5075129;28;20047;-89
2023/03/19 10:24:40;;;;;;;12.13;6.95;;;12.90;99.90;;;;;;5049478;28;20044;-89
2023/03/19 10:27:16;;;;;;;13.70;7.00;;;12.90;99.90;;;;;;5059186;28;20047;-88
2023/03/19 10:29:42;;;;;;;11.77;6.95;;;12.90;99.90;;;;;;5050168;28;20036;-88
2023/03/19 10:32:08;;;;;;;11.40;6.47;;;12.90;99.90;;;;;;5051578;28;20036;-89
2023/03/19 10:34:36;;;;;;;11.50;6.53;;;12.90;99.90;;;;;;5059869;28;20040;-88
2023/03/19 10:37:42;;;;;;;11.90;6.65;;;12.90;99.90;;;;;;5066866;28;20028;-87
2023/03/19 10:40:20;;;;;;;12.82;6.97;;;13.00;99.90;;;;;;5029779;28;20044;-88
2023/03/19 10:43:04;;;;;;;13.57;7.43;;;13.10;99.90;;;;;;5043092;28;20562;-88
2023/03/19 10:45:33;;;;;;;14.73;8.25;;;13.20;99.90;;;;;;5066059;28;20401;-87
2023/03/19 10:48:00;;;;;;;12.00;7.53;;;13.20;99.90;;;;;;5061201;28;20274;-86
2023/03/19 10:50:45;;;;;;;12.77;7.43;;;13.30;99.90;;;;;;5025184;28;20128;-87
2023/03/19 10:53:13;;;;;;;12.35;7.78;;;13.30;99.90;;;;;;5050238;28;20052;-86
2023/03/19 10:55:59;;;;;;;13.23;7.47;;;13.40;99.90;;;;;;5067505;28;20056;-87
2023/03/19 10:58:28;;;;;;;11.77;6.85;;;13.50;99.90;;;;;;5050917;28;20131;-87
2023/03/19 11:01:06;;;;;;;12.27;7.28;;;13.60;99.90;;;;;;5067131;28;20115;-87
2023/03/19 11:03:37;;;;;;;12.32;6.90;;;13.70;99.90;;;;;;5067126;28;20306;-87
2023/03/19 11:06:10;;;;;;;13.05;7.32;;;13.70;99.90;;;;;;5051341;28;20037;-86
2023/03/19 11:08:37;;;;;;;12.85;7.32;;;13.60;99.90;;;;;;5050746;28;20040;-87
2023/03/19 11:11:02;;;;;;;12.15;7.63;;;13.60;99.90;;;;;;5066938;28;20044;-86
2023/03/19 11:13:29;;;;;;;12.48;7.20;;;13.60;99.90;;;;;;5067484;28;20094;-86
2023/03/19 11:15:59;;;;;;;11.55;6.95;;;13.60;99.90;;;;;;5067785;28;20040;-87
2023/03/19 11:18:35;;;;;;;11.68;6.75;;;13.60;99.90;;;;;;5068285;28;20037;-87
2023/03/19 11:21:08;;;;;;;11.90;7.40;;;13.60;99.90;;;;;;5050960;28;20431;-86
2023/03/19 11:23:40;;;;;;;13.35;7.95;;;13.80;99.90;;;;;;5068058;28;20386;-87
2023/03/19 11:26:06;;;;;;;12.27;7.40;;;14.00;99.90;;;;;;5071060;28;20396;-85
2023/03/19 11:28:36;;;;;;;13.77;7.32;;;14.10;99.90;;;;;;5024726;28;20036;-88
2023/03/19 11:31:28;;;;;;;11.75;7.35;;;14.00;99.90;;;;;;5054373;28;20041;-86
2023/03/19 11:34:34;;;;;;;12.47;7.20;;;14.20;99.90;;;;;;5083289;28;20098;-87
2023/03/19 11:37:38;;;;;;;12.30;7.47;;;14.10;99.90;;;;;;5060128;28;20295;-87
2023/03/19 11:40:30;;;;;;;12.23;7.55;;;14.10;99.90;;;;;;5065845;28;20052;-86
2023/03/19 11:43:20;;;;;;;12.90;8.30;;;14.20;99.90;;;;;;5071867;28;20044;-87
2023/03/19 11:46:18;;;;;;;12.98;7.68;;;14.10;99.90;;;;;;5070590;28;20040;-86
2023/03/19 11:49:09;;;;;;;14.50;8.30;;;14.10;99.90;;;;;;5070820;28;20111;-86
2023/03/19 11:51:50;;;;;;;13.45;8.18;;;14.00;99.90;;;;;;5070831;28;20055;-86
2023/03/19 11:54:20;;;;;;;12.60;7.60;;;14.10;99.90;;;;;;5071628;28;20187;-87
2023/03/19 11:56:54;;;;;;;13.75;8.10;;;14.10;99.90;;;;;;5068501;28;20127;-87
2023/03/19 11:59:44;;;;;;;13.82;8.32;;;14.20;99.90;;;;;;5071426;28;20111;-87
2023/03/19 12:02:30;;;;;;;13.98;9.10;;;14.40;99.90;;;;;;5071165;28;20548;-86
2023/03/19 12:05:25;;;;;;;13.38;8.65;;;14.60;99.90;;;;;;5071719;28;20115;-88
2023/03/19 12:08:38;;;;;;;13.70;8.55;;;14.80;99.90;;;;;;5052423;28;20052;-87
2023/03/19 12:11:17;;;;;;;14.05;8.50;;;14.70;99.90;;;;;;4993416;28;20057;-86
2023/03/19 12:14:10;;;;;;;11.93;7.53;;;14.80;99.90;;;;;;4975729;28;20042;-87
2023/03/19 12:16:54;;;;;;;13.43;8.35;;;14.80;99.90;;;;;;5033262;28;20072;-86
2023/03/19 12:19:32;;;;;;;12.82;8.15;;;14.80;99.90;;;;;;5059031;28;20040;-86
2023/03/19 12:22:37;;;;;;;12.75;7.65;;;14.80;99.90;;;;;;5057733;28;20074;-86
2023/03/19 12:25:27;;;;;;;13.35;7.57;;;14.60;99.90;;;;;;5027752;28;20044;-86
2023/03/19 12:28:11;;;;;;;13.80;8.57;;;13.30;99.90;;;;;;5042497;28;20342;-87
2023/03/19 12:30:42;;;;;;;12.00;7.80;;;14.60;99.90;;;;;;5051156;28;20553;-87
2023/03/19 12:33:29;;;;;;;13.48;8.25;;;14.70;99.90;;;;;;5063368;28;20037;-86
2023/03/19 12:35:57;;;;;;;12.55;8.25;;;14.80;99.90;;;;;;5062255;28;20040;-86
2023/03/19 12:38:26;;;;;;;13.10;8.20;;;14.90;99.90;;;;;;5067345;28;20040;-87
2023/03/19 12:41:09;;;;;;;13.38;8.40;;;15.00;99.90;;;;;;5068039;28;20517;-86
2023/03/19 12:44:14;;;;;;;13.43;8.30;;;15.00;99.90;;;;;;5044326;28;20040;-87
2023/03/19 12:47:02;;;;;;;15.10;9.18;;;14.90;99.90;;;;;;5032850;28;20059;-87
2023/03/19 12:49:30;;;;;;;13.43;8.68;;;15.00;99.90;;;;;;5062995;28;20131;-87
2023/03/19 12:52:06;;;;;;;14.77;9.15;;;14.90;99.90;;;;;;5062605;28;20036;-87